createdAt,value
2024-01-04T00:00:59.335Z,6.54
2024-01-04T00:03:27.828Z,6.52
2024-01-04T00:05:55.040Z,6.53
2024-01-04T00:08:22.186Z,6.51
2024-01-04T00:10:49.183Z,6.51
2024-01-04T00:13:16.051Z,6.49
2024-01-04T00:15:43.157Z,6.52
2024-01-04T00:18:10.389Z,6.50
2024-01-04T00:20:37.965Z,6.46
2024-01-04T00:23:05.690Z,6.46
2024-01-04T00:25:32.697Z,6.45
2024-01-04T00:28:00.854Z,6.45
2024-01-04T00:30:27.854Z,6.45
2024-01-04T00:32:54.986Z,6.41
2024-01-04T00:35:22.608Z,6.40
2024-01-04T00:37:50.503Z,6.34
2024-01-04T00:40:17.521Z,6.35
2024-01-04T00:42:44.480Z,6.33
2024-01-04T00:45:11.828Z,6.30
2024-01-04T00:47:38.850Z,6.30
2024-01-04T00:50:06.411Z,6.26
2024-01-04T00:52:33.307Z,6.26
2024-01-04T00:55:00.330Z,6.22
2024-01-04T00:57:27.180Z,6.23
2024-01-04T00:59:54.639Z,6.22
2024-01-04T01:02:21.679Z,6.21
2024-01-04T01:04:48.580Z,6.17
2024-01-04T01:07:15.435Z,6.15
2024-01-04T01:09:42.344Z,6.14
2024-01-04T01:12:09.429Z,6.15
2024-01-04T01:14:36.329Z,6.14
2024-01-04T01:17:03.403Z,6.12
2024-01-04T01:19:30.486Z,6.11
2024-01-04T01:21:57.579Z,6.11
2024-01-04T01:24:24.465Z,6.13
2024-01-04T01:26:51.479Z,6.10
2024-01-04T01:29:18.398Z,6.09
2024-01-04T01:31:45.395Z,6.07
2024-01-04T01:34:13.047Z,6.05
2024-01-04T01:36:43.038Z,6.06
2024-01-04T01:39:10.373Z,6.05
2024-01-04T01:41:37.527Z,6.03
2024-01-04T01:44:04.703Z,6.02
2024-01-04T01:46:31.705Z,5.97
2024-01-04T01:48:59.114Z,5.95
2024-01-04T01:51:27.524Z,5.90
2024-01-04T01:53:55.715Z,5.86
2024-01-04T01:56:22.720Z,5.82
2024-01-04T01:58:50.796Z,5.76
2024-01-04T02:01:18.265Z,5.75
2024-01-04T02:03:45.399Z,5.75
2024-01-04T02:06:12.567Z,5.62
2024-01-04T02:08:39.891Z,5.51
2024-01-04T02:11:07.155Z,5.44
2024-01-04T02:13:34.025Z,5.34
2024-01-04T02:16:00.993Z,5.23
2024-01-04T02:18:28.410Z,5.19
2024-01-04T02:20:55.493Z,5.19
2024-01-04T02:23:22.493Z,5.27
2024-01-04T02:25:49.328Z,5.33
2024-01-04T02:28:16.336Z,5.34
2024-01-04T02:30:43.315Z,5.36
2024-01-04T02:33:10.777Z,5.33
2024-01-04T02:35:37.900Z,5.32
2024-01-04T02:38:05.560Z,5.28
2024-01-04T02:40:32.640Z,5.24
2024-01-04T02:42:59.622Z,5.25
2024-01-04T02:45:26.650Z,5.24
2024-01-04T02:47:53.708Z,5.26
2024-01-04T02:50:20.656Z,5.28
2024-01-04T02:52:47.801Z,5.33
2024-01-04T02:55:14.872Z,5.35
2024-01-04T02:57:41.815Z,5.34
2024-01-04T03:00:09.258Z,5.36
2024-01-04T03:02:36.509Z,5.37
2024-01-04T03:05:03.498Z,5.40
2024-01-04T03:07:30.396Z,5.38
2024-01-04T03:09:57.697Z,5.27
2024-01-04T03:12:24.579Z,5.12
2024-01-04T03:14:51.677Z,5.03
2024-01-04T03:17:18.704Z,4.93
2024-01-04T03:19:45.689Z,4.81
2024-01-04T03:22:12.650Z,4.78
2024-01-04T03:24:39.728Z,4.81
2024-01-04T03:27:07.364Z,4.91
2024-01-04T03:29:34.467Z,4.91
2024-01-04T03:32:01.316Z,4.90
2024-01-04T03:34:30.198Z,4.91
2024-01-04T03:36:57.243Z,4.89
2024-01-04T03:39:24.160Z,4.95
2024-01-04T03:41:51.231Z,4.91
2024-01-04T03:44:18.217Z,4.79
2024-01-04T03:46:45.052Z,4.71
2024-01-04T03:49:12.823Z,4.70
2024-01-04T03:51:40.001Z,4.79
2024-01-04T03:54:07.451Z,4.88
2024-01-04T03:56:34.340Z,4.93
2024-01-04T03:59:01.237Z,4.96
2024-01-04T04:01:28.223Z,4.99
2024-01-04T04:03:55.307Z,5.02
2024-01-04T04:06:22.512Z,4.97
2024-01-04T04:08:49.582Z,4.83
2024-01-04T04:11:18.184Z,4.68
2024-01-04T04:13:45.353Z,4.58
2024-01-04T04:16:12.341Z,4.48
2024-01-04T04:18:39.442Z,4.46
2024-01-04T04:21:06.770Z,4.38
2024-01-04T04:23:33.796Z,4.31
2024-01-04T04:26:05.666Z,4.24
2024-01-04T04:28:32.857Z,4.21
2024-01-04T04:30:59.736Z,4.21
2024-01-04T04:33:26.755Z,4.28
2024-01-04T04:35:59.358Z,4.39
2024-01-04T04:38:29.085Z,4.45
2024-01-04T04:40:56.202Z,4.48
2024-01-04T04:43:23.118Z,4.56
2024-01-04T04:45:50.019Z,4.63
2024-01-04T04:48:17.184Z,4.68
2024-01-04T04:50:44.203Z,4.72
2024-01-04T04:53:11.096Z,4.76
2024-01-04T04:55:38.059Z,4.77
2024-01-04T04:58:05.082Z,4.76
2024-01-04T05:00:32.508Z,4.76
2024-01-04T05:02:59.530Z,4.74
2024-01-04T05:05:26.442Z,4.72
2024-01-04T05:07:53.503Z,4.74
2024-01-04T05:10:20.506Z,4.69
2024-01-04T05:12:47.338Z,4.68
2024-01-04T05:15:14.390Z,4.69
2024-01-04T05:17:41.431Z,4.73
2024-01-04T05:20:08.917Z,4.72
2024-01-04T05:22:35.939Z,4.71
2024-01-04T05:25:02.953Z,4.72
2024-01-04T05:27:29.986Z,4.74
2024-01-04T05:29:57.148Z,4.69
2024-01-04T05:32:24.164Z,4.64
2024-01-04T05:34:51.128Z,4.57
2024-01-04T05:37:17.937Z,4.51
2024-01-04T05:39:44.921Z,4.53
2024-01-04T05:42:12.012Z,4.49
2024-01-04T05:44:38.909Z,4.44
2024-01-04T05:47:06.871Z,4.40
2024-01-04T05:49:34.089Z,4.40
2024-01-04T05:52:01.483Z,4.38
2024-01-04T05:54:28.481Z,4.34
2024-01-04T05:56:55.475Z,4.31
2024-01-04T05:59:25.926Z,4.30
2024-01-04T06:01:53.277Z,4.26
2024-01-04T06:04:20.178Z,4.24
2024-01-04T06:06:48.430Z,4.20
2024-01-04T06:09:15.601Z,4.19
2024-01-04T06:11:42.473Z,4.18
2024-01-04T06:14:09.407Z,4.19
2024-01-04T06:16:36.779Z,4.24
2024-01-04T06:19:03.831Z,4.18
2024-01-04T06:21:30.776Z,4.16
2024-01-04T06:23:58.528Z,4.09
2024-01-04T06:26:25.839Z,4.09
2024-01-04T06:28:52.778Z,4.12
2024-01-04T06:31:19.621Z,4.10
2024-01-04T06:33:46.713Z,4.05
2024-01-04T06:36:13.794Z,3.99
2024-01-04T06:38:40.827Z,3.99
2024-01-04T06:41:09.072Z,4.06
2024-01-04T06:43:36.076Z,4.06
2024-01-04T06:46:03.612Z,3.99
2024-01-04T06:48:30.623Z,3.92
2024-01-04T06:50:57.560Z,3.85
2024-01-04T06:53:24.614Z,3.81
2024-01-04T06:55:51.430Z,3.87
2024-01-04T06:58:18.313Z,3.92
2024-01-04T07:00:45.368Z,3.92
2024-01-04T07:03:12.638Z,3.94
2024-01-04T07:05:39.867Z,3.94
2024-01-04T07:08:07.329Z,3.96
2024-01-04T07:10:35.579Z,3.96
2024-01-04T07:13:02.557Z,3.95
2024-01-04T07:15:29.465Z,3.90
2024-01-04T07:17:56.855Z,3.84
2024-01-04T07:20:26.069Z,3.77
2024-01-04T07:22:54.479Z,3.74
2024-01-04T07:25:23.712Z,3.67
2024-01-04T07:27:51.214Z,3.63
2024-01-04T07:30:18.405Z,3.62
2024-01-04T07:32:45.666Z,3.61
2024-01-04T07:35:17.329Z,3.57
2024-01-04T07:37:45.611Z,3.52
2024-01-04T07:40:13.237Z,3.56
2024-01-04T07:42:40.687Z,3.58
2024-01-04T07:45:08.895Z,3.53
2024-01-04T07:47:39.109Z,3.45
2024-01-04T07:50:07.271Z,3.45
2024-01-04T07:52:34.413Z,3.49
2024-01-04T07:55:04.093Z,3.53
2024-01-04T07:57:33.187Z,3.58
2024-01-04T08:00:00.413Z,3.59
2024-01-04T08:02:30.055Z,3.65
2024-01-04T08:04:57.803Z,3.65
2024-01-04T08:07:24.854Z,3.57
2024-01-04T08:09:52.250Z,3.56
2024-01-04T08:12:19.229Z,3.56
2024-01-04T08:14:46.323Z,3.50
2024-01-04T08:17:13.526Z,3.44
2024-01-04T08:19:40.689Z,3.42
2024-01-04T08:22:07.723Z,3.37
2024-01-04T08:24:34.587Z,3.35
2024-01-04T08:27:01.575Z,3.42
2024-01-04T08:29:28.561Z,3.50
2024-01-04T08:31:55.397Z,3.57
2024-01-04T08:34:22.354Z,3.67
2024-01-04T08:36:49.285Z,3.76
2024-01-04T08:39:16.251Z,3.82
2024-01-04T08:41:43.198Z,3.89
2024-01-04T08:44:10.261Z,4.00
2024-01-04T08:46:39.374Z,4.07
2024-01-04T08:49:09.374Z,4.13
2024-01-04T08:51:36.975Z,4.21
2024-01-04T08:54:04.281Z,4.29
2024-01-04T08:56:31.250Z,4.35
2024-01-04T08:58:58.239Z,4.39
2024-01-04T09:01:25.963Z,4.44
2024-01-04T09:03:53.987Z,4.45
2024-01-04T09:06:20.912Z,4.50
2024-01-04T09:08:47.865Z,4.54
2024-01-04T09:11:14.788Z,4.53
2024-01-04T09:13:41.661Z,4.56
2024-01-04T09:16:08.513Z,4.70
2024-01-04T09:18:37.213Z,4.82
2024-01-04T09:21:04.702Z,4.83
2024-01-04T09:23:31.750Z,4.86
2024-01-04T09:25:58.716Z,4.89
2024-01-04T09:28:26.640Z,4.93
2024-01-04T09:30:53.673Z,4.87
2024-01-04T09:33:24.830Z,4.87
2024-01-04T09:35:52.019Z,4.80
2024-01-04T09:38:20.385Z,4.83
2024-01-04T09:40:49.763Z,4.75
2024-01-04T09:43:17.552Z,4.79
2024-01-04T09:45:45.077Z,4.81
2024-01-04T09:48:21.377Z,4.91
2024-01-04T09:50:55.494Z,4.96
2024-01-04T09:53:22.848Z,4.99
2024-01-04T09:55:50.742Z,4.96
2024-01-04T09:58:17.770Z,4.83
2024-01-04T10:00:44.701Z,4.81
2024-01-04T10:03:13.912Z,4.85
2024-01-04T10:05:43.698Z,5.03
2024-01-04T10:08:27.669Z,5.21
2024-01-04T10:10:57.689Z,5.30
2024-01-04T10:13:24.608Z,5.46
2024-01-04T10:15:52.249Z,5.47
2024-01-04T10:18:20.566Z,5.47
2024-01-04T10:21:02.212Z,5.49
2024-01-04T10:23:29.138Z,5.42
2024-01-04T10:26:14.439Z,5.38
2024-01-04T10:28:41.624Z,5.48
2024-01-04T10:31:12.605Z,5.61
2024-01-04T10:33:41.924Z,5.63
2024-01-04T10:36:13.290Z,5.65
2024-01-04T10:38:41.935Z,5.61
2024-01-04T10:41:08.966Z,5.65
2024-01-04T10:43:37.398Z,5.85
2024-01-04T10:46:10.095Z,5.94
2024-01-04T10:48:42.971Z,5.94
2024-01-04T10:51:11.568Z,5.84
2024-01-04T10:53:39.719Z,5.87
2024-01-04T10:56:09.608Z,5.89
2024-01-04T10:58:37.769Z,5.95
2024-01-04T11:01:05.880Z,5.85
2024-01-04T11:03:33.582Z,5.84
2024-01-04T11:06:02.050Z,5.69
2024-01-04T11:08:30.360Z,5.63
2024-01-04T11:10:59.944Z,5.68
2024-01-04T11:13:27.182Z,5.78
2024-01-04T11:15:58.276Z,5.86
2024-01-04T11:18:52.500Z,5.81
2024-01-04T11:21:27.993Z,5.87
2024-01-04T11:24:09.675Z,5.93
2024-01-04T11:27:00.448Z,5.86
2024-01-04T11:29:29.080Z,5.72
2024-01-04T11:32:00.290Z,5.77
2024-01-04T11:34:28.163Z,5.74
2024-01-04T11:37:18.256Z,5.73
2024-01-04T11:39:54.332Z,5.82
2024-01-04T11:42:21.559Z,5.99
2024-01-04T11:44:51.601Z,6.23
2024-01-04T11:47:28.088Z,6.31
2024-01-04T11:50:08.870Z,6.52
2024-01-04T11:52:40.478Z,6.63
2024-01-04T11:55:08.646Z,6.51
2024-01-04T11:57:35.905Z,6.38
2024-01-04T12:00:32.464Z,6.38
2024-01-04T12:03:01.990Z,6.40
2024-01-04T12:05:29.794Z,6.54
2024-01-04T12:07:57.024Z,6.72
2024-01-04T12:10:23.869Z,6.63
2024-01-04T12:12:50.795Z,6.59
2024-01-04T12:15:22.113Z,6.43
2024-01-04T12:17:49.347Z,6.42
2024-01-04T12:20:16.299Z,6.32
2024-01-04T12:22:43.397Z,6.27
2024-01-04T12:25:10.908Z,6.28
2024-01-04T12:27:38.439Z,6.40
2024-01-04T12:30:07.346Z,6.43
2024-01-04T12:32:34.790Z,6.50
2024-01-04T12:35:03.731Z,6.58
2024-01-04T12:37:30.906Z,6.59
2024-01-04T12:40:11.635Z,6.70
2024-01-04T12:42:39.512Z,6.80
2024-01-04T12:45:10.799Z,6.88
2024-01-04T12:47:38.918Z,6.90
2024-01-04T12:50:10.228Z,6.85
2024-01-04T12:52:42.000Z,6.75
2024-01-04T12:55:08.951Z,6.62
2024-01-04T12:57:37.677Z,6.52
2024-01-04T13:00:05.624Z,6.46
2024-01-04T13:02:32.708Z,6.46
2024-01-04T13:04:59.565Z,6.45
2024-01-04T13:07:26.739Z,6.44
2024-01-04T13:09:53.668Z,6.36
2024-01-04T13:12:21.142Z,6.37
2024-01-04T13:14:48.687Z,6.30
2024-01-04T13:17:15.745Z,6.36
2024-01-04T13:19:42.684Z,6.14
2024-01-04T13:22:09.788Z,6.02
2024-01-04T13:24:37.031Z,5.96
2024-01-04T13:27:04.502Z,5.96
2024-01-04T13:29:31.469Z,5.94
2024-01-04T13:31:58.334Z,5.90
2024-01-04T13:34:25.396Z,5.92
2024-01-04T13:36:52.568Z,5.83
2024-01-04T13:39:19.563Z,5.87
2024-01-04T13:41:46.539Z,5.85
2024-01-04T13:44:14.510Z,5.79
2024-01-04T13:46:41.993Z,5.82
2024-01-04T13:49:09.053Z,5.79
2024-01-04T13:51:36.650Z,5.85
2024-01-04T13:54:04.398Z,5.85
2024-01-04T13:56:35.725Z,5.86
2024-01-04T13:59:02.671Z,5.91
2024-01-04T14:01:30.076Z,5.87
2024-01-04T14:03:57.139Z,5.79
2024-01-04T14:06:24.288Z,5.71
2024-01-04T14:08:54.177Z,5.70
2024-01-04T14:11:22.411Z,5.63
2024-01-04T14:13:49.665Z,5.64
2024-01-04T14:16:16.521Z,5.56
2024-01-04T14:18:43.519Z,5.59
2024-01-04T14:21:10.440Z,5.69
2024-01-04T14:23:37.382Z,5.62
2024-01-04T14:26:04.534Z,5.58
2024-01-04T14:28:31.552Z,5.59
2024-01-04T14:30:58.494Z,5.59
2024-01-04T14:33:32.534Z,5.64
2024-01-04T14:36:04.559Z,5.56
2024-01-04T14:38:31.630Z,5.50
2024-01-04T14:40:58.587Z,5.52
2024-01-04T14:43:25.488Z,5.55
2024-01-04T14:45:52.414Z,5.55
2024-01-04T14:48:19.440Z,5.54
2024-01-04T14:50:46.666Z,5.51
2024-01-04T14:53:14.916Z,5.43
2024-01-04T14:55:41.799Z,5.43
2024-01-04T14:58:09.112Z,5.44
2024-01-04T15:00:36.426Z,5.40
2024-01-04T15:03:04.441Z,5.45
2024-01-04T15:05:34.831Z,5.42
2024-01-04T15:08:02.049Z,5.38
2024-01-04T15:10:28.915Z,5.35
2024-01-04T15:12:57.376Z,5.34
2024-01-04T15:15:30.170Z,5.28
2024-01-04T15:18:04.021Z,5.31
2024-01-04T15:20:31.054Z,5.27
2024-01-04T15:22:57.983Z,5.26
2024-01-04T15:25:26.124Z,5.24
2024-01-04T15:27:54.732Z,5.15
2024-01-04T15:30:21.749Z,5.16
2024-01-04T15:32:50.938Z,5.17
2024-01-04T15:35:17.960Z,5.11
2024-01-04T15:37:45.635Z,5.08
2024-01-04T15:40:13.330Z,5.08
2024-01-04T15:42:40.267Z,5.05
2024-01-04T15:45:07.697Z,5.00
2024-01-04T15:47:34.794Z,4.91
2024-01-04T15:50:03.203Z,4.91
2024-01-04T15:52:30.065Z,4.86
2024-01-04T15:54:57.051Z,4.82
2024-01-04T15:57:24.019Z,4.79
2024-01-04T15:59:51.003Z,4.75
2024-01-04T16:02:18.058Z,4.77
2024-01-04T16:04:45.193Z,4.81
2024-01-04T16:07:12.260Z,4.80
2024-01-04T16:09:39.245Z,4.80
2024-01-04T16:12:07.819Z,4.82
2024-01-04T16:14:35.172Z,4.86
2024-01-04T16:17:04.376Z,4.84
2024-01-04T16:19:31.466Z,4.79
2024-01-04T16:21:58.493Z,4.82
2024-01-04T16:24:25.609Z,4.79
2024-01-04T16:26:53.930Z,4.80
2024-01-04T16:29:22.312Z,4.81
2024-01-04T16:31:49.290Z,4.82
2024-01-04T16:34:17.216Z,4.78
2024-01-04T16:36:44.349Z,4.78
2024-01-04T16:39:12.112Z,4.74
2024-01-04T16:41:38.978Z,4.71
2024-01-04T16:44:05.862Z,4.68
2024-01-04T16:46:33.089Z,4.63
2024-01-04T16:49:00.254Z,4.63
2024-01-04T16:51:27.270Z,4.67
2024-01-04T16:53:54.465Z,4.63
2024-01-04T16:56:24.529Z,4.62
2024-01-04T16:58:54.930Z,4.59
2024-01-04T17:01:22.054Z,4.55
2024-01-04T17:03:48.997Z,4.62
2024-01-04T17:06:16.581Z,4.62
2024-01-04T17:08:43.610Z,4.64
2024-01-04T17:11:11.144Z,4.62
2024-01-04T17:13:38.580Z,4.63
2024-01-04T17:16:05.823Z,4.63
2024-01-04T17:18:32.923Z,4.62
2024-01-04T17:20:59.865Z,4.62
2024-01-04T17:23:28.563Z,4.65
2024-01-04T17:25:55.442Z,4.60
2024-01-04T17:28:22.768Z,4.59
2024-01-04T17:30:53.376Z,4.63
2024-01-04T17:33:20.564Z,4.63
2024-01-04T17:35:56.140Z,4.64
2024-01-04T17:38:33.206Z,4.64
2024-01-04T17:41:00.500Z,4.65
2024-01-04T17:43:27.385Z,4.68
2024-01-04T17:45:54.459Z,4.65
2024-01-04T17:48:21.785Z,4.64
2024-01-04T17:50:48.755Z,4.64
2024-01-04T17:53:15.869Z,4.65
2024-01-04T17:55:42.826Z,4.66
2024-01-04T17:58:09.802Z,4.61
2024-01-04T18:00:37.129Z,4.58
2024-01-04T18:03:04.409Z,4.58
2024-01-04T18:05:31.534Z,4.65
2024-01-04T18:07:59.508Z,4.66
2024-01-04T18:10:26.874Z,4.61
2024-01-04T18:12:53.834Z,4.60
2024-01-04T18:15:20.994Z,4.58
2024-01-04T18:17:48.176Z,4.58
2024-01-04T18:20:16.113Z,4.59
2024-01-04T18:22:43.331Z,4.56
2024-01-04T18:25:10.358Z,4.55
2024-01-04T18:27:37.541Z,4.57
2024-01-04T18:30:05.956Z,4.56
2024-01-04T18:32:33.099Z,4.53
2024-01-04T18:35:01.079Z,4.52
2024-01-04T18:37:28.159Z,4.52
2024-01-04T18:39:55.334Z,4.49
2024-01-04T18:42:22.454Z,4.50
2024-01-04T18:44:49.673Z,4.54
2024-01-04T18:47:16.748Z,4.46
2024-01-04T18:49:43.819Z,4.45
2024-01-04T18:52:10.839Z,4.39
2024-01-04T18:54:37.856Z,4.28
2024-01-04T18:57:05.003Z,4.29
2024-01-04T18:59:32.980Z,4.31
2024-01-04T19:01:59.885Z,4.34
2024-01-04T19:04:26.872Z,4.35
2024-01-04T19:06:54.794Z,4.38
2024-01-04T19:09:23.457Z,4.35
2024-01-04T19:11:50.401Z,4.37
2024-01-04T19:14:17.622Z,4.35
2024-01-04T19:16:45.975Z,4.41
2024-01-04T19:19:13.242Z,4.44
2024-01-04T19:21:40.587Z,4.39
2024-01-04T19:24:07.590Z,4.38
2024-01-04T19:26:34.607Z,4.36
2024-01-04T19:29:01.454Z,4.35
2024-01-04T19:31:28.364Z,4.33
2024-01-04T19:33:56.596Z,4.34
2024-01-04T19:36:23.845Z,4.39
2024-01-04T19:38:50.909Z,4.34
2024-01-04T19:41:20.090Z,4.29
2024-01-04T19:43:47.032Z,4.27
2024-01-04T19:46:14.358Z,4.25
2024-01-04T19:48:41.576Z,4.26
2024-01-04T19:51:08.979Z,4.28
2024-01-04T19:53:35.963Z,4.26
2024-01-04T19:56:03.555Z,4.22
2024-01-04T19:58:32.359Z,4.18
2024-01-04T20:00:59.741Z,4.14
2024-01-04T20:03:27.042Z,4.13
2024-01-04T20:05:54.166Z,4.15
2024-01-04T20:08:21.047Z,4.17
2024-01-04T20:10:48.048Z,4.20
2024-01-04T20:13:14.936Z,4.24
2024-01-04T20:15:41.793Z,4.22
2024-01-04T20:18:08.894Z,4.16
2024-01-04T20:20:35.976Z,4.18
2024-01-04T20:23:02.950Z,4.18
2024-01-04T20:25:31.316Z,4.18
2024-01-04T20:27:58.284Z,4.15
2024-01-04T20:30:25.433Z,4.17
2024-01-04T20:32:52.610Z,4.19
2024-01-04T20:35:19.790Z,4.17
2024-01-04T20:37:46.741Z,4.19
2024-01-04T20:40:16.195Z,4.19
2024-01-04T20:42:46.054Z,4.16
2024-01-04T20:45:16.113Z,4.15
2024-01-04T20:47:43.115Z,4.14
2024-01-04T20:50:10.099Z,4.14
2024-01-04T20:52:37.214Z,4.18
2024-01-04T20:55:05.196Z,4.18
2024-01-04T20:57:33.547Z,4.16
2024-01-04T21:00:01.355Z,4.17
2024-01-04T21:02:28.407Z,4.14
2024-01-04T21:04:55.340Z,4.14
2024-01-04T21:07:22.609Z,4.14
2024-01-04T21:09:49.492Z,4.10
2024-01-04T21:12:16.465Z,4.05
2024-01-04T21:14:46.329Z,4.07
2024-01-04T21:17:14.433Z,4.10
2024-01-04T21:19:41.520Z,4.12
2024-01-04T21:22:08.694Z,4.05
2024-01-04T21:24:36.817Z,4.04
2024-01-04T21:27:04.600Z,4.05
2024-01-04T21:29:32.468Z,4.03
2024-01-04T21:31:59.515Z,4.03
2024-01-04T21:34:26.574Z,4.05
2024-01-04T21:36:53.492Z,4.04
2024-01-04T21:39:22.166Z,4.00
2024-01-04T21:41:49.754Z,3.98
2024-01-04T21:44:16.951Z,4.01
2024-01-04T21:46:44.697Z,4.04
2024-01-04T21:49:11.933Z,4.03
2024-01-04T21:51:38.923Z,4.09
2024-01-04T21:54:05.903Z,4.08
2024-01-04T21:56:33.210Z,4.08
2024-01-04T21:59:01.729Z,4.07
2024-01-04T22:01:30.873Z,4.06
2024-01-04T22:03:58.238Z,4.06
2024-01-04T22:06:25.548Z,4.02
2024-01-04T22:08:53.012Z,3.96
2024-01-04T22:11:20.079Z,3.96
2024-01-04T22:13:48.122Z,4.02
2024-01-04T22:16:15.746Z,4.05
2024-01-04T22:18:42.766Z,4.05
2024-01-04T22:21:10.008Z,4.00
2024-01-04T22:23:38.246Z,4.00
2024-01-04T22:26:05.085Z,3.96
2024-01-04T22:28:32.546Z,3.96
2024-01-04T22:30:59.655Z,4.01
2024-01-04T22:33:26.869Z,3.99
2024-01-04T22:35:54.009Z,3.94
2024-01-04T22:38:20.983Z,3.92
2024-01-04T22:40:47.811Z,3.92
2024-01-04T22:43:14.789Z,3.88
2024-01-04T22:45:42.014Z,3.88
2024-01-04T22:48:12.123Z,3.89
2024-01-04T22:50:39.026Z,3.93
2024-01-04T22:53:05.950Z,3.90
2024-01-04T22:55:33.090Z,3.89
2024-01-04T22:57:59.996Z,3.87
2024-01-04T23:00:27.566Z,3.87
2024-01-04T23:02:56.282Z,3.85
2024-01-04T23:05:23.330Z,3.85
2024-01-04T23:07:50.257Z,3.83
2024-01-04T23:10:17.393Z,3.80
2024-01-04T23:12:45.587Z,3.82
2024-01-04T23:15:13.750Z,3.84
2024-01-04T23:17:41.084Z,3.80
2024-01-04T23:20:10.129Z,3.81
2024-01-04T23:22:37.367Z,3.80
2024-01-04T23:25:05.084Z,3.84
2024-01-04T23:27:35.084Z,3.80
2024-01-04T23:30:04.438Z,3.73
2024-01-04T23:32:31.484Z,3.68
2024-01-04T23:34:58.574Z,3.67
2024-01-04T23:37:25.537Z,3.68
2024-01-04T23:39:52.476Z,3.64
2024-01-04T23:42:19.482Z,3.68
2024-01-04T23:44:46.471Z,3.71
2024-01-04T23:47:14.043Z,3.67
2024-01-04T23:49:41.139Z,3.70
2024-01-04T23:52:08.071Z,3.66
2024-01-04T23:54:35.073Z,3.61
2024-01-04T23:57:02.602Z,3.59
2024-01-04T23:59:29.438Z,3.59
